createdAt,value
2019-05-06T00:02:16.635Z,2.93
2019-05-06T00:04:48.172Z,2.86
2019-05-06T00:07:19.423Z,2.79
2019-05-06T00:09:50.938Z,2.79
2019-05-06T00:12:23.935Z,2.79
2019-05-06T00:14:55.797Z,2.86
2019-05-06T00:17:27.185Z,2.89
2019-05-06T00:19:58.459Z,2.87
2019-05-06T00:22:29.838Z,2.78
2019-05-06T00:25:07.986Z,2.65
2019-05-06T00:27:58.319Z,2.49
2019-05-06T00:30:29.669Z,2.44
2019-05-06T00:33:00.951Z,2.42
2019-05-06T00:35:34.162Z,2.48
2019-05-06T00:38:05.328Z,2.53
2019-05-06T00:40:38.710Z,2.56
2019-05-06T00:43:10.777Z,2.47
2019-05-06T00:45:44.190Z,2.40
2019-05-06T00:48:15.348Z,2.38
2019-05-06T00:50:46.944Z,2.40
2019-05-06T00:53:20.549Z,2.36
2019-05-06T00:55:53.829Z,2.36
2019-05-06T00:58:25.452Z,2.30
2019-05-06T01:00:56.876Z,2.42
2019-05-06T01:03:28.112Z,2.52
2019-05-06T01:05:59.756Z,2.65
2019-05-06T01:08:31.278Z,2.64
2019-05-06T01:11:04.156Z,2.66
2019-05-06T01:13:44.037Z,2.64
2019-05-06T01:16:15.913Z,2.60
2019-05-06T01:18:47.151Z,2.56
2019-05-06T01:21:18.796Z,2.46
2019-05-06T01:23:50.486Z,2.47
2019-05-06T01:26:23.690Z,2.48
2019-05-06T01:28:54.996Z,2.39
2019-05-06T01:31:39.825Z,2.31
2019-05-06T01:33:59.355Z,2.30
2019-05-06T01:36:31.059Z,2.10
2019-05-06T01:39:36.379Z,2.06
2019-05-06T01:42:21.086Z,1.97
2019-05-06T01:44:53.888Z,1.95
2019-05-06T01:47:25.471Z,1.97
2019-05-06T01:49:57.986Z,1.93
2019-05-06T01:52:29.375Z,1.88
2019-05-06T01:55:00.678Z,1.79
2019-05-06T01:57:33.780Z,1.76
2019-05-06T02:00:07.883Z,1.76
2019-05-06T02:02:39.471Z,1.68
2019-05-06T02:05:11.351Z,1.64
2019-05-06T02:07:44.115Z,1.72
2019-05-06T02:10:16.651Z,1.63
2019-05-06T02:12:47.981Z,1.58
2019-05-06T02:15:19.446Z,1.51
2019-05-06T02:17:51.062Z,1.50
2019-05-06T02:20:24.497Z,1.40
2019-05-06T02:23:04.063Z,1.52
2019-05-06T02:25:39.985Z,1.68
2019-05-06T02:28:11.302Z,1.64
2019-05-06T02:31:06.434Z,1.58
2019-05-06T02:33:59.014Z,1.56
2019-05-06T02:36:58.605Z,1.69
2019-05-06T02:39:33.908Z,1.62
2019-05-06T02:42:04.851Z,1.43
2019-05-06T02:44:36.284Z,1.48
2019-05-06T02:47:26.625Z,1.51
2019-05-06T02:50:04.408Z,1.60
2019-05-06T02:52:34.915Z,1.54
2019-05-06T02:55:07.305Z,1.58
2019-05-06T02:57:38.781Z,1.42
2019-05-06T03:00:15.166Z,1.35
2019-05-06T03:02:48.161Z,1.32
2019-05-06T03:05:23.510Z,1.29
2019-05-06T03:07:57.581Z,1.24
2019-05-06T03:10:28.067Z,1.19
2019-05-06T03:12:59.714Z,1.27
2019-05-06T03:15:33.538Z,1.29
2019-05-06T03:18:04.340Z,1.37
2019-05-06T03:21:03.646Z,1.27
2019-05-06T03:23:36.495Z,1.26
2019-05-06T03:26:07.913Z,1.29
2019-05-06T03:28:39.358Z,1.25
2019-05-06T03:31:15.499Z,1.19
2019-05-06T03:33:59.730Z,1.20
2019-05-06T03:36:25.892Z,1.23
2019-05-06T03:38:53.563Z,1.13
2019-05-06T03:41:26.750Z,1.09
2019-05-06T03:43:57.989Z,1.17
2019-05-06T03:46:47.221Z,1.05
2019-05-06T03:49:18.880Z,1.22
2019-05-06T03:51:55.988Z,1.19
2019-05-06T03:54:24.045Z,1.15
2019-05-06T03:56:56.755Z,1.07
2019-05-06T03:59:33.323Z,1.14
2019-05-06T04:02:05.443Z,1.14
2019-05-06T04:04:37.945Z,1.18
2019-05-06T04:07:09.830Z,1.24
2019-05-06T04:09:43.939Z,1.25
2019-05-06T04:12:15.343Z,1.30
2019-05-06T04:14:47.255Z,1.37
2019-05-06T04:17:27.850Z,1.44
2019-05-06T04:20:06.711Z,1.53
2019-05-06T04:22:58.222Z,1.51
2019-05-06T04:25:52.699Z,1.56
2019-05-06T04:28:26.264Z,1.56
2019-05-06T04:30:58.007Z,1.63
2019-05-06T04:33:29.660Z,1.58
2019-05-06T04:36:03.613Z,1.56
2019-05-06T04:38:34.874Z,1.48
2019-05-06T04:41:06.395Z,1.52
2019-05-06T04:43:38.490Z,1.51
2019-05-06T04:46:10.260Z,1.54
2019-05-06T04:48:43.357Z,1.64
2019-05-06T04:51:15.267Z,1.68
2019-05-06T04:53:47.412Z,1.74
2019-05-06T04:56:19.072Z,1.89
2019-05-06T04:58:53.560Z,1.99
2019-05-06T05:01:23.841Z,2.08
2019-05-06T05:03:55.967Z,2.24
2019-05-06T05:06:27.381Z,2.34
2019-05-06T05:08:59.018Z,2.49
2019-05-06T05:11:46.629Z,2.65
2019-05-06T05:14:42.179Z,2.80
2019-05-06T05:17:38.946Z,2.96
2019-05-06T05:20:12.684Z,3.06
2019-05-06T05:22:44.230Z,3.15
2019-05-06T05:25:16.070Z,3.21
2019-05-06T05:27:47.442Z,3.32
2019-05-06T05:30:18.903Z,3.41
2019-05-06T05:32:52.079Z,3.54
2019-05-06T05:35:23.739Z,3.77
2019-05-06T05:37:55.645Z,4.10
2019-05-06T05:40:27.119Z,4.40
2019-05-06T05:43:23.490Z,4.65
2019-05-06T05:45:55.046Z,4.90
2019-05-06T05:48:48.411Z,4.85
2019-05-06T05:51:22.124Z,4.93
2019-05-06T05:53:53.662Z,4.61
2019-05-06T05:56:25.240Z,4.44
2019-05-06T05:58:56.701Z,4.46
2019-05-06T06:01:28.317Z,4.50
2019-05-06T06:04:03.028Z,4.25
2019-05-06T06:06:34.271Z,4.07
2019-05-06T06:09:07.500Z,4.19
2019-05-06T06:11:49.650Z,4.53
2019-05-06T06:14:47.518Z,4.61
2019-05-06T06:17:45.232Z,4.94
2019-05-06T06:21:18.771Z,5.22
2019-05-06T06:23:52.887Z,5.41
2019-05-06T06:26:24.515Z,5.31
2019-05-06T06:28:55.871Z,5.45
2019-05-06T06:31:33.950Z,5.59
2019-05-06T06:34:13.008Z,5.79
2019-05-06T06:36:53.853Z,5.94
2019-05-06T06:39:36.751Z,6.26
2019-05-06T06:42:08.288Z,6.35
2019-05-06T06:44:40.020Z,6.61
2019-05-06T06:47:12.989Z,6.88
2019-05-06T06:49:44.974Z,7.25
2019-05-06T06:52:16.420Z,7.49
2019-05-06T06:54:47.837Z,7.11
2019-05-06T06:57:27.154Z,7.20
2019-05-06T07:00:13.559Z,6.90
2019-05-06T07:02:53.465Z,6.77
2019-05-06T07:05:36.675Z,6.72
2019-05-06T07:08:08.464Z,6.92
2019-05-06T07:10:46.380Z,6.42
2019-05-06T07:13:18.592Z,7.11
2019-05-06T07:15:52.007Z,7.32
2019-05-06T07:18:23.698Z,7.63
2019-05-06T07:21:22.605Z,8.10
2019-05-06T07:23:53.996Z,8.96
2019-05-06T07:26:28.891Z,10.10
2019-05-06T07:29:03.974Z,11.08
2019-05-06T07:31:33.375Z,11.49
2019-05-06T07:34:04.897Z,11.02
2019-05-06T07:36:36.399Z,11.27
2019-05-06T07:39:08.901Z,11.46
2019-05-06T07:41:46.217Z,11.43
2019-05-06T07:44:35.481Z,11.83
2019-05-06T07:47:15.761Z,12.47
2019-05-06T07:49:46.743Z,11.11
2019-05-06T07:52:18.275Z,11.35
2019-05-06T07:54:49.727Z,10.62
2019-05-06T07:57:22.056Z,10.15
2019-05-06T07:59:54.658Z,10.08
2019-05-06T08:02:26.183Z,10.47
2019-05-06T08:04:58.561Z,11.16
2019-05-06T08:07:30.344Z,11.42
2019-05-06T08:10:02.327Z,11.71
2019-05-06T08:12:35.035Z,9.96
2019-05-06T08:15:07.815Z,9.07
2019-05-06T08:17:42.512Z,9.27
2019-05-06T08:20:14.942Z,10.72
2019-05-06T08:22:58.043Z,11.73
2019-05-06T08:25:38.234Z,11.26
2019-05-06T08:28:09.675Z,10.59
2019-05-06T08:30:43.186Z,10.22
2019-05-06T08:33:14.760Z,11.22
2019-05-06T08:35:46.194Z,13.08
2019-05-06T08:38:18.237Z,14.54
2019-05-06T08:40:49.787Z,14.65
2019-05-06T08:43:21.950Z,14.82
2019-05-06T08:45:53.531Z,12.98
2019-05-06T08:48:25.980Z,11.70
2019-05-06T08:51:08.871Z,11.20
2019-05-06T08:53:55.919Z,11.12
2019-05-06T08:56:27.475Z,11.06
2019-05-06T08:58:58.813Z,10.49
2019-05-06T09:01:39.038Z,10.29
2019-05-06T09:04:13.680Z,10.63
2019-05-06T09:06:43.609Z,10.51
2019-05-06T09:09:15.486Z,10.50
2019-05-06T09:11:46.917Z,9.88
2019-05-06T09:14:18.735Z,9.90
2019-05-06T09:16:51.377Z,9.67
2019-05-06T09:19:23.613Z,9.57
2019-05-06T09:21:55.002Z,9.56
2019-05-06T09:24:26.510Z,9.43
2019-05-06T09:27:17.896Z,9.75
2019-05-06T09:29:52.333Z,10.01
2019-05-06T09:32:35.892Z,10.10
2019-05-06T09:35:06.611Z,10.11
2019-05-06T09:37:38.214Z,10.43
2019-05-06T09:40:12.701Z,9.95
2019-05-06T09:42:44.326Z,9.61
2019-05-06T09:45:15.976Z,9.60
2019-05-06T09:48:12.870Z,9.20
2019-05-06T09:50:46.743Z,9.15
2019-05-06T09:53:25.257Z,9.02
2019-05-06T09:56:18.666Z,9.24
2019-05-06T09:58:52.756Z,9.36
2019-05-06T10:01:23.420Z,9.31
2019-05-06T10:03:56.226Z,9.49
2019-05-06T10:06:27.768Z,9.48
2019-05-06T10:08:59.484Z,9.60
2019-05-06T10:11:32.894Z,9.63
2019-05-06T10:14:04.575Z,9.61
2019-05-06T10:16:36.306Z,9.62
2019-05-06T10:19:08.068Z,9.63
2019-05-06T10:21:39.495Z,9.58
2019-05-06T10:24:10.952Z,9.39
2019-05-06T10:26:47.265Z,9.60
2019-05-06T10:29:32.608Z,9.93
2019-05-06T10:32:12.113Z,9.92
2019-05-06T10:34:43.841Z,10.47
2019-05-06T10:37:49.939Z,10.85
2019-05-06T10:40:29.913Z,10.79
2019-05-06T10:43:28.824Z,10.52
2019-05-06T10:46:01.834Z,10.02
2019-05-06T10:48:33.672Z,10.00
2019-05-06T10:51:22.756Z,10.08
2019-05-06T10:53:53.924Z,9.92
2019-05-06T10:56:52.833Z,9.56
2019-05-06T10:59:18.498Z,9.91
2019-05-06T11:01:51.926Z,10.16
2019-05-06T11:04:23.733Z,10.38
2019-05-06T11:06:55.274Z,10.42
2019-05-06T11:09:28.072Z,10.53
2019-05-06T11:11:59.519Z,10.47
2019-05-06T11:14:32.939Z,10.35
2019-05-06T11:17:05.217Z,10.43
2019-05-06T11:19:36.820Z,10.38
2019-05-06T11:22:08.259Z,10.43
2019-05-06T11:24:42.054Z,10.68
2019-05-06T11:27:27.652Z,10.95
2019-05-06T11:29:47.843Z,10.91
2019-05-06T11:32:41.117Z,11.23
2019-05-06T11:35:22.810Z,11.70
2019-05-06T11:38:02.672Z,12.14
2019-05-06T11:40:34.391Z,12.29
2019-05-06T11:43:05.924Z,12.28
2019-05-06T11:45:37.741Z,12.00
2019-05-06T11:48:09.100Z,11.76
2019-05-06T11:50:42.849Z,11.42
2019-05-06T11:53:14.403Z,10.99
2019-05-06T11:55:45.935Z,10.77
2019-05-06T11:58:34.867Z,10.53
2019-05-06T12:01:13.474Z,10.19
2019-05-06T12:03:45.106Z,9.93
2019-05-06T12:06:16.863Z,9.46
2019-05-06T12:08:48.319Z,9.15
2019-05-06T12:11:19.795Z,8.99
2019-05-06T12:13:53.286Z,8.78
2019-05-06T12:16:25.968Z,8.68
2019-05-06T12:18:59.948Z,8.68
2019-05-06T12:21:33.046Z,8.69
2019-05-06T12:24:04.115Z,8.73
2019-05-06T12:26:35.838Z,8.94
2019-05-06T12:29:07.300Z,9.22
2019-05-06T12:31:38.735Z,9.48
2019-05-06T12:34:12.416Z,9.73
2019-05-06T12:36:44.191Z,10.14
2019-05-06T12:39:33.162Z,10.29
2019-05-06T12:42:27.066Z,10.54
2019-05-06T12:45:20.214Z,10.96
2019-05-06T12:47:56.054Z,10.68
2019-05-06T12:50:27.576Z,10.67
2019-05-06T12:52:59.028Z,10.14
2019-05-06T12:55:30.562Z,10.11
2019-05-06T12:58:02.980Z,9.71
2019-05-06T13:00:34.738Z,9.76
2019-05-06T13:03:07.011Z,9.50
2019-05-06T13:05:38.485Z,9.49
2019-05-06T13:08:10.348Z,9.48
2019-05-06T13:10:42.215Z,9.52
2019-05-06T13:13:14.416Z,9.41
2019-05-06T13:15:46.332Z,9.70
2019-05-06T13:18:18.124Z,10.11
2019-05-06T13:20:52.095Z,10.41
2019-05-06T13:23:29.051Z,10.32
2019-05-06T13:26:02.046Z,10.15
2019-05-06T13:28:36.518Z,10.65
2019-05-06T13:31:17.246Z,10.88
2019-05-06T13:34:09.865Z,10.95
2019-05-06T13:36:42.784Z,12.36
2019-05-06T13:39:15.422Z,11.49
2019-05-06T13:41:47.042Z,11.15
2019-05-06T13:44:19.791Z,10.96
2019-05-06T13:46:53.716Z,11.06
2019-05-06T13:49:46.882Z,10.93
2019-05-06T13:52:22.958Z,11.23
2019-05-06T13:54:54.591Z,12.01
2019-05-06T13:57:28.903Z,13.07
2019-05-06T13:59:59.133Z,13.15
2019-05-06T14:02:45.750Z,12.61
2019-05-06T14:05:19.042Z,13.80
2019-05-06T14:07:52.692Z,13.86
2019-05-06T14:10:23.919Z,12.92
2019-05-06T14:12:55.395Z,11.92
2019-05-06T14:15:26.913Z,11.85
2019-05-06T14:17:58.300Z,11.39
2019-05-06T14:20:29.794Z,10.92
2019-05-06T14:23:02.270Z,10.92
2019-05-06T14:25:49.964Z,10.26
2019-05-06T14:28:28.097Z,10.28
2019-05-06T14:31:25.700Z,10.17
2019-05-06T14:33:57.518Z,10.01
2019-05-06T14:36:32.163Z,9.96
2019-05-06T14:39:05.367Z,9.80
2019-05-06T14:41:38.944Z,9.90
2019-05-06T14:44:12.218Z,9.98
2019-05-06T14:47:01.467Z,9.93
2019-05-06T14:49:32.833Z,9.92
2019-05-06T14:52:04.337Z,9.64
2019-05-06T14:54:48.968Z,9.48
2019-05-06T14:57:22.765Z,9.31
2019-05-06T14:59:55.940Z,9.27
2019-05-06T15:02:28.327Z,9.21
2019-05-06T15:05:02.756Z,9.25
2019-05-06T15:07:33.988Z,9.18
2019-05-06T15:10:21.982Z,9.12
2019-05-06T15:12:42.664Z,9.14
2019-05-06T15:15:15.453Z,9.08
2019-05-06T15:17:46.888Z,9.16
2019-05-06T15:20:18.613Z,9.20
2019-05-06T15:22:50.080Z,9.40
2019-05-06T15:25:22.246Z,9.53
2019-05-06T15:27:53.707Z,9.53
2019-05-06T15:30:34.138Z,9.54
2019-05-06T15:33:07.836Z,9.56
2019-05-06T15:36:16.476Z,9.77
2019-05-06T15:38:48.004Z,9.98
2019-05-06T15:41:19.461Z,10.24
2019-05-06T15:43:51.369Z,10.19
2019-05-06T15:46:22.894Z,10.45
2019-05-06T15:48:55.181Z,10.46
2019-05-06T15:51:35.973Z,10.26
2019-05-06T15:54:08.180Z,10.31
2019-05-06T15:56:42.094Z,10.28
2019-05-06T15:59:12.744Z,10.28
2019-05-06T16:01:44.283Z,10.21
2019-05-06T16:04:15.952Z,10.17
2019-05-06T16:06:48.801Z,10.10
2019-05-06T16:09:23.171Z,9.98
2019-05-06T16:11:55.038Z,9.95
2019-05-06T16:14:27.125Z,10.05
2019-05-06T16:16:58.647Z,10.10
2019-05-06T16:19:30.111Z,9.97
2019-05-06T16:22:03.902Z,9.72
2019-05-06T16:24:43.091Z,9.54
2019-05-06T16:27:13.762Z,9.44
2019-05-06T16:29:46.204Z,9.40
2019-05-06T16:32:18.012Z,9.72
2019-05-06T16:34:49.461Z,9.49
2019-05-06T16:37:22.262Z,9.49
2019-05-06T16:39:54.620Z,9.33
2019-05-06T16:42:26.210Z,9.33
2019-05-06T16:44:58.986Z,9.40
2019-05-06T16:47:37.312Z,9.29
2019-05-06T16:50:13.213Z,9.23
2019-05-06T16:52:45.516Z,9.29
2019-05-06T16:55:24.381Z,9.20
2019-05-06T16:58:05.547Z,9.30
2019-05-06T17:00:38.387Z,9.26
2019-05-06T17:03:15.893Z,9.15
2019-05-06T17:06:05.277Z,9.30
2019-05-06T17:08:36.844Z,9.28
2019-05-06T17:11:08.358Z,9.19
2019-05-06T17:13:40.087Z,9.18
2019-05-06T17:16:13.855Z,9.10
2019-05-06T17:18:46.121Z,8.83
2019-05-06T17:21:17.491Z,8.85
2019-05-06T17:23:49.041Z,8.85
2019-05-06T17:26:22.481Z,8.68
2019-05-06T17:29:22.809Z,8.57
2019-05-06T17:32:25.415Z,8.45
2019-05-06T17:34:57.837Z,8.36
2019-05-06T17:38:03.848Z,8.40
2019-05-06T17:40:35.616Z,8.36
2019-05-06T17:43:07.056Z,8.26
2019-05-06T17:46:03.135Z,8.30
2019-05-06T17:48:45.873Z,8.36
2019-05-06T17:51:19.555Z,8.36
2019-05-06T17:53:53.096Z,8.37
2019-05-06T17:56:24.928Z,8.32
2019-05-06T17:58:57.145Z,8.22
2019-05-06T18:01:46.135Z,8.15
2019-05-06T18:04:17.860Z,8.14
2019-05-06T18:06:49.431Z,8.14
2019-05-06T18:09:22.353Z,8.16
2019-05-06T18:11:58.823Z,8.30
2019-05-06T18:14:27.474Z,8.38
2019-05-06T18:16:59.039Z,8.46
2019-05-06T18:19:32.906Z,8.46
2019-05-06T18:22:03.886Z,8.41
2019-05-06T18:24:36.391Z,8.47
2019-05-06T18:27:07.892Z,8.38
2019-05-06T18:29:39.198Z,8.35
2019-05-06T18:32:12.632Z,8.39
2019-05-06T18:34:44.031Z,8.38
2019-05-06T18:37:15.420Z,8.24
2019-05-06T18:39:47.044Z,8.28
2019-05-06T18:42:20.345Z,8.33
2019-05-06T18:44:51.580Z,8.25
2019-05-06T18:47:23.093Z,8.14
2019-05-06T18:49:54.404Z,8.09
2019-05-06T18:52:26.121Z,8.00
2019-05-06T18:54:57.726Z,7.99
2019-05-06T18:57:29.168Z,7.99
2019-05-06T19:00:02.953Z,7.90
2019-05-06T19:02:35.438Z,7.93
2019-05-06T19:05:14.324Z,7.94
2019-05-06T19:07:46.939Z,7.90
2019-05-06T19:10:25.412Z,7.95
2019-05-06T19:12:57.046Z,7.89
2019-05-06T19:15:32.751Z,7.86
2019-05-06T19:18:04.599Z,7.86
2019-05-06T19:20:36.033Z,7.87
2019-05-06T19:23:08.779Z,7.86
2019-05-06T19:25:42.695Z,7.83
2019-05-06T19:28:14.545Z,7.79
2019-05-06T19:30:49.279Z,7.79
2019-05-06T19:33:21.017Z,7.76
2019-05-06T19:35:52.556Z,7.82
2019-05-06T19:38:26.833Z,7.72
2019-05-06T19:40:58.863Z,7.77
2019-05-06T19:43:32.771Z,7.86
2019-05-06T19:46:04.535Z,7.82
2019-05-06T19:48:37.367Z,7.72
2019-05-06T19:51:09.116Z,7.69
2019-05-06T19:53:42.721Z,7.60
2019-05-06T19:56:14.058Z,7.60
2019-05-06T19:58:45.460Z,7.61
2019-05-06T20:01:32.321Z,7.62
2019-05-06T20:04:05.810Z,7.65
2019-05-06T20:06:48.293Z,7.73
2019-05-06T20:09:33.031Z,7.70
2019-05-06T20:12:07.520Z,7.60
2019-05-06T20:14:38.889Z,7.45
2019-05-06T20:17:10.323Z,7.43
2019-05-06T20:19:42.548Z,7.36
2019-05-06T20:22:14.319Z,7.30
2019-05-06T20:24:46.117Z,7.23
2019-05-06T20:27:17.455Z,7.15
2019-05-06T20:29:49.068Z,7.00
2019-05-06T20:32:22.570Z,6.98
2019-05-06T20:34:53.667Z,6.92
2019-05-06T20:37:25.127Z,6.87
2019-05-06T20:39:57.057Z,6.82
2019-05-06T20:42:28.534Z,6.86
2019-05-06T20:45:02.037Z,6.86
2019-05-06T20:47:33.200Z,6.87
2019-05-06T20:50:05.138Z,6.89
2019-05-06T20:52:37.362Z,6.90
2019-05-06T20:55:15.898Z,6.94
2019-05-06T20:57:43.382Z,6.88
2019-05-06T21:00:15.011Z,6.82
2019-05-06T21:02:46.682Z,6.91
2019-05-06T21:05:18.642Z,6.97
2019-05-06T21:07:52.399Z,6.96
2019-05-06T21:10:23.625Z,6.96
2019-05-06T21:12:54.935Z,6.97
2019-05-06T21:15:26.392Z,7.01
2019-05-06T21:18:01.383Z,6.97
2019-05-06T21:20:33.002Z,6.86
2019-05-06T21:23:05.001Z,6.85
2019-05-06T21:25:36.446Z,6.74
2019-05-06T21:28:07.799Z,6.59
2019-05-06T21:30:39.207Z,6.49
2019-05-06T21:33:12.392Z,6.36
2019-05-06T21:35:43.709Z,6.24
2019-05-06T21:38:15.141Z,6.18
2019-05-06T21:40:46.665Z,6.09
2019-05-06T21:43:17.972Z,6.05
2019-05-06T21:45:49.346Z,5.85
2019-05-06T21:48:22.201Z,5.78
2019-05-06T21:50:53.666Z,5.63
2019-05-06T21:53:25.406Z,5.50
2019-05-06T21:55:57.019Z,5.46
2019-05-06T21:58:28.385Z,5.45
2019-05-06T22:01:05.296Z,5.29
2019-05-06T22:03:38.349Z,5.20
2019-05-06T22:06:09.787Z,4.83
2019-05-06T22:08:42.376Z,4.38
2019-05-06T22:11:13.932Z,4.01
2019-05-06T22:13:58.006Z,3.78
2019-05-06T22:16:18.797Z,3.57
2019-05-06T22:18:50.134Z,3.42
2019-05-06T22:21:23.871Z,3.32
2019-05-06T22:23:57.071Z,3.26
2019-05-06T22:26:29.490Z,3.36
2019-05-06T22:29:02.020Z,3.61
2019-05-06T22:31:33.623Z,3.72
2019-05-06T22:34:05.462Z,3.69
2019-05-06T22:36:36.760Z,3.61
2019-05-06T22:39:08.320Z,3.44
2019-05-06T22:41:41.321Z,3.30
2019-05-06T22:44:14.233Z,3.11
2019-05-06T22:46:45.817Z,3.01
2019-05-06T22:49:17.577Z,2.96
2019-05-06T22:51:52.041Z,2.89
2019-05-06T22:54:24.622Z,2.80
2019-05-06T22:56:56.100Z,2.69
2019-05-06T22:59:27.540Z,2.60
2019-05-06T23:02:32.931Z,2.53
2019-05-06T23:05:04.680Z,2.42
2019-05-06T23:07:36.397Z,2.35
2019-05-06T23:10:08.100Z,2.29
2019-05-06T23:12:39.796Z,2.22
2019-05-06T23:15:12.090Z,2.17
2019-05-06T23:17:43.913Z,2.11
2019-05-06T23:20:15.627Z,2.08
2019-05-06T23:22:47.181Z,1.98
2019-05-06T23:25:18.749Z,1.93
2019-05-06T23:27:50.195Z,1.92
2019-05-06T23:30:23.604Z,1.96
2019-05-06T23:32:54.768Z,2.01
2019-05-06T23:35:26.134Z,1.96
2019-05-06T23:38:52.446Z,1.95
2019-05-06T23:42:18.174Z,1.78
2019-05-06T23:45:43.509Z,1.72
2019-05-06T23:49:09.144Z,1.71
2019-05-06T23:52:34.455Z,1.64
2019-05-06T23:56:02.623Z,1.57
2019-05-06T23:58:33.267Z,1.55
